sensor_id;sensor_type;location;lat;lon;timestamp;pressure;altitude;pressure_sealevel;temperature;humidity
10392;BME280;5242;49.244;6.774;2022-11-15T00:00:38;99201.47;;;9.73;100.00
10392;BME280;5242;49.244;6.774;2022-11-15T00:08:31;99212.34;;;9.73;100.00
10392;BME280;5242;49.244;6.774;2022-11-15T00:16:23;99204.63;;;9.75;100.00
10392;BME280;5242;49.244;6.774;2022-11-15T00:24:15;99205.50;;;9.79;100.00
10392;BME280;5242;49.244;6.774;2022-11-15T00:32:07;99200.13;;;9.83;100.00
10392;BME280;5242;49.244;6.774;2022-11-15T00:39:59;99194.34;;;9.85;100.00
10392;BME280;5242;49.244;6.774;2022-11-15T00:47:51;99187.03;;;9.89;100.00
10392;BME280;5242;49.244;6.774;2022-11-15T00:55:43;99193.97;;;9.86;100.00
10392;BME280;5242;49.244;6.774;2022-11-15T01:03:36;99182.31;;;9.86;100.00
10392;BME280;5242;49.244;6.774;2022-11-15T01:11:28;99191.97;;;9.83;100.00
10392;BME280;5242;49.244;6.774;2022-11-15T01:19:20;99192.41;;;9.85;100.00
10392;BME280;5242;49.244;6.774;2022-11-15T01:27:11;99192.47;;;9.89;100.00
10392;BME280;5242;49.244;6.774;2022-11-15T01:35:04;99187.47;;;9.91;100.00
10392;BME280;5242;49.244;6.774;2022-11-15T01:42:55;99186.25;;;9.88;100.00
10392;BME280;5242;49.244;6.774;2022-11-15T01:50:48;99175.03;;;9.90;100.00
10392;BME280;5242;49.244;6.774;2022-11-15T01:58:40;99173.88;;;9.91;100.00
10392;BME280;5242;49.244;6.774;2022-11-15T02:06:34;99161.44;;;9.90;100.00
10392;BME280;5242;49.244;6.774;2022-11-15T02:14:27;99155.13;;;9.86;100.00
10392;BME280;5242;49.244;6.774;2022-11-15T02:38:41;99128.53;;;9.79;100.00
10392;BME280;5242;49.244;6.774;2022-11-15T02:46:40;99121.53;;;9.78;100.00
10392;BME280;5242;49.244;6.774;2022-11-15T02:55:00;99133.19;;;9.78;100.00
10392;BME280;5242;49.244;6.774;2022-11-15T03:11:15;99113.03;;;9.79;100.00
10392;BME280;5242;49.244;6.774;2022-11-15T03:27:29;99106.72;;;9.75;100.00
10392;BME280;5242;49.244;6.774;2022-11-15T03:35:25;99101.91;;;9.69;100.00
10392;BME280;5242;49.244;6.774;2022-11-15T03:51:13;99092.91;;;9.45;100.00
10392;BME280;5242;49.244;6.774;2022-11-15T03:59:05;99091.25;;;9.41;100.00
10392;BME280;5242;49.244;6.774;2022-11-15T04:06:56;99085.53;;;9.46;100.00
10392;BME280;5242;49.244;6.774;2022-11-15T04:14:48;99081.03;;;9.53;100.00
10392;BME280;5242;49.244;6.774;2022-11-15T04:22:59;99083.75;;;9.53;100.00
10392;BME280;5242;49.244;6.774;2022-11-15T04:31:10;99082.97;;;9.53;100.00
10392;BME280;5242;49.244;6.774;2022-11-15T04:39:02;99077.53;;;9.53;100.00
10392;BME280;5242;49.244;6.774;2022-11-15T04:46:54;99080.25;;;9.53;100.00
10392;BME280;5242;49.244;6.774;2022-11-15T04:54:46;99079.13;;;9.54;100.00
10392;BME280;5242;49.244;6.774;2022-11-15T05:02:38;99072.47;;;9.51;100.00
10392;BME280;5242;49.244;6.774;2022-11-15T05:10:48;99059.50;;;9.45;100.00
10392;BME280;5242;49.244;6.774;2022-11-15T05:18:40;99062.44;;;9.36;100.00
10392;BME280;5242;49.244;6.774;2022-11-15T05:26:32;99066.94;;;9.28;100.00
10392;BME280;5242;49.244;6.774;2022-11-15T05:34:24;99060.91;;;9.19;100.00
10392;BME280;5242;49.244;6.774;2022-11-15T05:42:17;99063.91;;;9.14;100.00
10392;BME280;5242;49.244;6.774;2022-11-15T05:50:12;99069.63;;;9.09;100.00
10392;BME280;5242;49.244;6.774;2022-11-15T05:58:06;99062.19;;;9.06;100.00
10392;BME280;5242;49.244;6.774;2022-11-15T06:05:57;99061.75;;;9.04;100.00
10392;BME280;5242;49.244;6.774;2022-11-15T06:13:49;99057.47;;;9.03;100.00
10392;BME280;5242;49.244;6.774;2022-11-15T06:21:41;99052.44;;;9.05;100.00
10392;BME280;5242;49.244;6.774;2022-11-15T06:29:33;99061.81;;;9.07;100.00
10392;BME280;5242;49.244;6.774;2022-11-15T06:37:24;99064.19;;;9.09;100.00
10392;BME280;5242;49.244;6.774;2022-11-15T06:45:16;99066.03;;;9.05;100.00
10392;BME280;5242;49.244;6.774;2022-11-15T06:53:08;99058.53;;;8.98;100.00
10392;BME280;5242;49.244;6.774;2022-11-15T07:01:05;99061.25;;;8.98;100.00
10392;BME280;5242;49.244;6.774;2022-11-15T07:08:57;99076.03;;;9.01;100.00
10392;BME280;5242;49.244;6.774;2022-11-15T07:16:49;99070.31;;;9.06;100.00
10392;BME280;5242;49.244;6.774;2022-11-15T07:24:41;99060.31;;;9.10;100.00
10392;BME280;5242;49.244;6.774;2022-11-15T07:32:34;99072.22;;;9.21;100.00
10392;BME280;5242;49.244;6.774;2022-11-15T07:40:27;99072.38;;;9.28;100.00
10392;BME280;5242;49.244;6.774;2022-11-15T07:48:19;99066.22;;;9.31;100.00
10392;BME280;5242;49.244;6.774;2022-11-15T07:56:11;99066.78;;;9.41;100.00
10392;BME280;5242;49.244;6.774;2022-11-15T08:04:03;99060.50;;;9.56;100.00
10392;BME280;5242;49.244;6.774;2022-11-15T08:11:55;99057.63;;;9.68;100.00
10392;BME280;5242;49.244;6.774;2022-11-15T08:19:47;99057.50;;;9.80;100.00
10392;BME280;5242;49.244;6.774;2022-11-15T08:27:39;99048.31;;;9.89;100.00
10392;BME280;5242;49.244;6.774;2022-11-15T08:35:31;99042.06;;;10.08;100.00
10392;BME280;5242;49.244;6.774;2022-11-15T08:43:23;99029.06;;;10.20;100.00
10392;BME280;5242;49.244;6.774;2022-11-15T08:51:15;99024.63;;;10.32;100.00
10392;BME280;5242;49.244;6.774;2022-11-15T08:59:06;99026.53;;;10.54;100.00
10392;BME280;5242;49.244;6.774;2022-11-15T09:06:58;99035.44;;;10.78;100.00
10392;BME280;5242;49.244;6.774;2022-11-15T09:14:50;99036.47;;;10.96;100.00
10392;BME280;5242;49.244;6.774;2022-11-15T09:22:42;99021.19;;;11.15;100.00
10392;BME280;5242;49.244;6.774;2022-11-15T09:30:34;99012.34;;;11.25;100.00
10392;BME280;5242;49.244;6.774;2022-11-15T09:38:26;98986.41;;;11.38;100.00
10392;BME280;5242;49.244;6.774;2022-11-15T09:54:36;98985.97;;;12.07;100.00
10392;BME280;5242;49.244;6.774;2022-11-15T10:02:52;98968.03;;;12.58;100.00
10392;BME280;5242;49.244;6.774;2022-11-15T10:10:53;98958.94;;;13.09;100.00
10392;BME280;5242;49.244;6.774;2022-11-15T10:20:05;98953.66;;;13.56;100.00
10392;BME280;5242;49.244;6.774;2022-11-15T10:27:34;98940.81;;;13.99;100.00
10392;BME280;5242;49.244;6.774;2022-11-15T10:35:29;98927.13;;;14.17;100.00
10392;BME280;5242;49.244;6.774;2022-11-15T10:43:21;98903.66;;;14.16;100.00
10392;BME280;5242;49.244;6.774;2022-11-15T10:51:25;98900.53;;;14.00;100.00
10392;BME280;5242;49.244;6.774;2022-11-15T10:59:28;98881.00;;;14.01;100.00
10392;BME280;5242;49.244;6.774;2022-11-15T11:07:31;98854.34;;;14.16;100.00
10392;BME280;5242;49.244;6.774;2022-11-15T11:15:26;98850.41;;;14.35;100.00
10392;BME280;5242;49.244;6.774;2022-11-15T11:31:43;98820.75;;;13.94;96.59
10392;BME280;5242;49.244;6.774;2022-11-15T11:40:00;98812.16;;;13.85;100.00
10392;BME280;5242;49.244;6.774;2022-11-15T11:56:04;98782.78;;;14.10;100.00
10392;BME280;5242;49.244;6.774;2022-11-15T12:04:09;98765.91;;;14.37;100.00
10392;BME280;5242;49.244;6.774;2022-11-15T12:12:25;98747.44;;;14.48;94.97
10392;BME280;5242;49.244;6.774;2022-11-15T12:20:33;98732.16;;;14.51;93.76
10392;BME280;5242;49.244;6.774;2022-11-15T12:28:59;98704.00;;;14.50;92.36
10392;BME280;5242;49.244;6.774;2022-11-15T12:36:59;98700.88;;;14.48;90.67
10392;BME280;5242;49.244;6.774;2022-11-15T13:17:33;98641.69;;;14.69;93.14
10392;BME280;5242;49.244;6.774;2022-11-15T13:33:42;98603.66;;;14.78;89.55
10392;BME280;5242;49.244;6.774;2022-11-15T13:41:36;98596.63;;;14.70;88.04
10392;BME280;5242;49.244;6.774;2022-11-15T13:49:35;98581.06;;;14.60;90.11
10392;BME280;5242;49.244;6.774;2022-11-15T13:57:59;98563.88;;;14.55;89.51
10392;BME280;5242;49.244;6.774;2022-11-15T14:06:05;98536.91;;;14.50;88.55
10392;BME280;5242;49.244;6.774;2022-11-15T14:22:26;98524.19;;;14.22;86.89
10392;BME280;5242;49.244;6.774;2022-11-15T14:30:19;98511.38;;;14.08;88.35
10392;BME280;5242;49.244;6.774;2022-11-15T14:38:11;98505.59;;;13.96;90.50
10392;BME280;5242;49.244;6.774;2022-11-15T14:46:03;98501.78;;;13.75;90.21
10392;BME280;5242;49.244;6.774;2022-11-15T14:53:54;98508.94;;;13.55;90.64
10392;BME280;5242;49.244;6.774;2022-11-15T15:01:46;98486.38;;;13.40;90.92
10392;BME280;5242;49.244;6.774;2022-11-15T15:09:38;98482.88;;;13.29;91.83
10392;BME280;5242;49.244;6.774;2022-11-15T15:17:30;98470.38;;;13.20;92.47
10392;BME280;5242;49.244;6.774;2022-11-15T15:25:34;98473.16;;;13.10;92.93
10392;BME280;5242;49.244;6.774;2022-11-15T15:33:26;98461.47;;;12.98;93.43
10392;BME280;5242;49.244;6.774;2022-11-15T15:41:18;98470.91;;;12.87;94.00
10392;BME280;5242;49.244;6.774;2022-11-15T15:49:10;98464.66;;;12.75;94.43
10392;BME280;5242;49.244;6.774;2022-11-15T15:57:02;98463.50;;;12.62;95.62
10392;BME280;5242;49.244;6.774;2022-11-15T16:04:54;98461.97;;;12.47;96.73
10392;BME280;5242;49.244;6.774;2022-11-15T16:12:46;98449.91;;;12.33;97.70
10392;BME280;5242;49.244;6.774;2022-11-15T16:20:44;98442.09;;;12.21;98.52
10392;BME280;5242;49.244;6.774;2022-11-15T16:28:36;98444.06;;;12.17;98.63
10392;BME280;5242;49.244;6.774;2022-11-15T16:36:31;98439.00;;;12.15;100.00
10392;BME280;5242;49.244;6.774;2022-11-15T16:44:24;98406.25;;;12.08;100.00
10392;BME280;5242;49.244;6.774;2022-11-15T16:52:16;98410.16;;;12.00;100.00
10392;BME280;5242;49.244;6.774;2022-11-15T17:00:12;98400.81;;;11.94;100.00
10392;BME280;5242;49.244;6.774;2022-11-15T17:08:07;98410.16;;;11.89;100.00
10392;BME280;5242;49.244;6.774;2022-11-15T17:16:06;98410.88;;;11.83;100.00
10392;BME280;5242;49.244;6.774;2022-11-15T17:23:59;98404.66;;;11.75;100.00
10392;BME280;5242;49.244;6.774;2022-11-15T17:31:51;98404.63;;;11.68;100.00
10392;BME280;5242;49.244;6.774;2022-11-15T17:39:42;98391.44;;;11.88;100.00
10392;BME280;5242;49.244;6.774;2022-11-15T17:47:34;98384.00;;;11.67;100.00
10392;BME280;5242;49.244;6.774;2022-11-15T17:55:26;98383.97;;;11.52;100.00
10392;BME280;5242;49.244;6.774;2022-11-15T18:03:17;98375.00;;;11.45;100.00
10392;BME280;5242;49.244;6.774;2022-11-15T18:11:12;98369.56;;;11.41;100.00
10392;BME280;5242;49.244;6.774;2022-11-15T18:19:05;98360.19;;;11.39;100.00
10392;BME280;5242;49.244;6.774;2022-11-15T18:27:00;98351.63;;;11.33;100.00
10392;BME280;5242;49.244;6.774;2022-11-15T18:34:52;98343.81;;;11.24;100.00
10392;BME280;5242;49.244;6.774;2022-11-15T18:42:45;98334.06;;;11.16;100.00
10392;BME280;5242;49.244;6.774;2022-11-15T18:50:36;98341.47;;;11.12;100.00
10392;BME280;5242;49.244;6.774;2022-11-15T18:58:30;98332.50;;;11.12;100.00
10392;BME280;5242;49.244;6.774;2022-11-15T19:06:25;98327.03;;;11.12;100.00
10392;BME280;5242;49.244;6.774;2022-11-15T19:14:17;98308.78;;;11.16;100.00
10392;BME280;5242;49.244;6.774;2022-11-15T19:22:10;98302.13;;;11.17;100.00
10392;BME280;5242;49.244;6.774;2022-11-15T19:30:02;98293.97;;;11.17;100.00
10392;BME280;5242;49.244;6.774;2022-11-15T19:37:54;98285.81;;;11.13;100.00
10392;BME280;5242;49.244;6.774;2022-11-15T19:45:54;98278.41;;;11.14;100.00
10392;BME280;5242;49.244;6.774;2022-11-15T19:53:55;98279.19;;;11.14;100.00
10392;BME280;5242;49.244;6.774;2022-11-15T20:01:47;98276.84;;;11.13;100.00
10392;BME280;5242;49.244;6.774;2022-11-15T20:09:39;98272.94;;;11.14;100.00
10392;BME280;5242;49.244;6.774;2022-11-15T20:17:31;98270.63;;;11.12;100.00
10392;BME280;5242;49.244;6.774;2022-11-15T20:25:22;98276.06;;;11.08;100.00
10392;BME280;5242;49.244;6.774;2022-11-15T20:33:14;98272.94;;;11.06;100.00
10392;BME280;5242;49.244;6.774;2022-11-15T20:41:07;98272.16;;;11.06;100.00
10392;BME280;5242;49.244;6.774;2022-11-15T20:48:59;98251.91;;;11.03;100.00
10392;BME280;5242;49.244;6.774;2022-11-15T20:56:51;98242.97;;;11.06;100.00
10392;BME280;5242;49.244;6.774;2022-11-15T21:04:42;98227.03;;;11.08;100.00
10392;BME280;5242;49.244;6.774;2022-11-15T21:12:34;98227.03;;;11.08;100.00
10392;BME280;5242;49.244;6.774;2022-11-15T21:20:26;98219.25;;;11.07;100.00
10392;BME280;5242;49.244;6.774;2022-11-15T21:28:18;98207.97;;;11.05;100.00
10392;BME280;5242;49.244;6.774;2022-11-15T21:36:10;98195.88;;;11.02;100.00
10392;BME280;5242;49.244;6.774;2022-11-15T21:44:03;98197.44;;;11.03;100.00
10392;BME280;5242;49.244;6.774;2022-11-15T21:51:55;98189.25;;;11.03;100.00
10392;BME280;5242;49.244;6.774;2022-11-15T21:59:47;98174.88;;;10.99;100.00
10392;BME280;5242;49.244;6.774;2022-11-15T22:07:57;98175.25;;;11.01;100.00
10392;BME280;5242;49.244;6.774;2022-11-15T22:15:49;98171.38;;;11.02;100.00
10392;BME280;5242;49.244;6.774;2022-11-15T22:23:43;98164.75;;;11.03;100.00
10392;BME280;5242;49.244;6.774;2022-11-15T22:31:35;98145.69;;;11.03;100.00
10392;BME280;5242;49.244;6.774;2022-11-15T22:39:27;98135.19;;;11.05;100.00
10392;BME280;5242;49.244;6.774;2022-11-15T22:47:18;98148.41;;;11.07;100.00
10392;BME280;5242;49.244;6.774;2022-11-15T22:55:10;98136.72;;;11.06;100.00
10392;BME280;5242;49.244;6.774;2022-11-15T23:03:02;98142.19;;;11.03;100.00
10392;BME280;5242;49.244;6.774;2022-11-15T23:10:58;98127.41;;;11.00;100.00
10392;BME280;5242;49.244;6.774;2022-11-15T23:19:10;98130.13;;;10.93;100.00
10392;BME280;5242;49.244;6.774;2022-11-15T23:27:04;98118.81;;;10.91;100.00
10392;BME280;5242;49.244;6.774;2022-11-15T23:34:57;98135.16;;;10.91;100.00
10392;BME280;5242;49.244;6.774;2022-11-15T23:42:49;98135.56;;;10.93;100.00
10392;BME280;5242;49.244;6.774;2022-11-15T23:50:41;98145.31;;;10.94;100.00
10392;BME280;5242;49.244;6.774;2022-11-15T23:58:33;98146.06;;;10.98;100.00
